sensor_id;sensor_type;location;lat;lon;timestamp;temperature;humidity
64924;HTU21D;51436;44.692;39.214;2023-09-08T00:00:41;17.64;63.75
64924;HTU21D;51436;44.692;39.214;2023-09-08T00:03:08;17.60;63.81
64924;HTU21D;51436;44.692;39.214;2023-09-08T00:05:34;17.56;63.85
64924;HTU21D;51436;44.692;39.214;2023-09-08T00:08:04;17.59;63.84
64924;HTU21D;51436;44.692;39.214;2023-09-08T00:10:31;17.58;63.79
64924;HTU21D;51436;44.692;39.214;2023-09-08T00:12:57;17.55;63.85
64924;HTU21D;51436;44.692;39.214;2023-09-08T00:15:23;17.53;63.85
64924;HTU21D;51436;44.692;39.214;2023-09-08T00:17:50;17.52;63.85
64924;HTU21D;51436;44.692;39.214;2023-09-08T00:20:16;17.48;63.97
64924;HTU21D;51436;44.692;39.214;2023-09-08T00:22:43;17.47;63.98
64924;HTU21D;51436;44.692;39.214;2023-09-08T00:25:09;17.41;64.08
64924;HTU21D;51436;44.692;39.214;2023-09-08T00:27:36;17.37;64.11
64924;HTU21D;51436;44.692;39.214;2023-09-08T00:30:03;17.34;64.18
64924;HTU21D;51436;44.692;39.214;2023-09-08T00:32:29;17.31;64.21
64924;HTU21D;51436;44.692;39.214;2023-09-08T00:34:56;17.29;64.21
64924;HTU21D;51436;44.692;39.214;2023-09-08T00:37:22;17.26;64.21
64924;HTU21D;51436;44.692;39.214;2023-09-08T00:39:50;17.24;64.27
64924;HTU21D;51436;44.692;39.214;2023-09-08T00:42:17;17.23;64.24
64924;HTU21D;51436;44.692;39.214;2023-09-08T00:44:43;17.21;64.25
64924;HTU21D;51436;44.692;39.214;2023-09-08T00:47:10;17.21;64.18
64924;HTU21D;51436;44.692;39.214;2023-09-08T00:49:36;17.18;64.23
64924;HTU21D;51436;44.692;39.214;2023-09-08T00:52:03;17.18;64.22
64924;HTU21D;51436;44.692;39.214;2023-09-08T00:54:30;17.17;64.21
64924;HTU21D;51436;44.692;39.214;2023-09-08T00:57:01;17.16;64.24
64924;HTU21D;51436;44.692;39.214;2023-09-08T00:59:33;17.05;64.38
64924;HTU21D;51436;44.692;39.214;2023-09-08T01:02:02;17.06;64.39
64924;HTU21D;51436;44.692;39.214;2023-09-08T01:04:28;17.04;64.38
64924;HTU21D;51436;44.692;39.214;2023-09-08T01:06:56;17.02;64.38
64924;HTU21D;51436;44.692;39.214;2023-09-08T01:09:23;17.05;64.33
64924;HTU21D;51436;44.692;39.214;2023-09-08T01:11:51;17.03;64.35
64924;HTU21D;51436;44.692;39.214;2023-09-08T01:14:20;17.02;64.33
64924;HTU21D;51436;44.692;39.214;2023-09-08T01:16:47;17.02;64.34
64924;HTU21D;51436;44.692;39.214;2023-09-08T01:19:14;16.96;64.44
64924;HTU21D;51436;44.692;39.214;2023-09-08T01:27:07;16.79;64.68
64924;HTU21D;51436;44.692;39.214;2023-09-08T01:29:38;16.77;64.72
64924;HTU21D;51436;44.692;39.214;2023-09-08T01:32:05;16.79;64.65
64924;HTU21D;51436;44.692;39.214;2023-09-08T01:34:31;16.78;64.63
64924;HTU21D;51436;44.692;39.214;2023-09-08T01:36:59;16.79;64.58
64924;HTU21D;51436;44.692;39.214;2023-09-08T01:39:30;16.77;64.59
64924;HTU21D;51436;44.692;39.214;2023-09-08T01:41:59;16.74;64.66
64924;HTU21D;51436;44.692;39.214;2023-09-08T01:44:26;16.71;64.71
64924;HTU21D;51436;44.692;39.214;2023-09-08T01:46:55;16.70;64.70
64924;HTU21D;51436;44.692;39.214;2023-09-08T01:49:24;16.66;64.75
64924;HTU21D;51436;44.692;39.214;2023-09-08T01:51:50;16.65;64.78
64924;HTU21D;51436;44.692;39.214;2023-09-08T01:54:16;16.63;64.79
64924;HTU21D;51436;44.692;39.214;2023-09-08T01:56:43;16.56;64.92
64924;HTU21D;51436;44.692;39.214;2023-09-08T01:59:09;16.54;64.95
64924;HTU21D;51436;44.692;39.214;2023-09-08T02:01:36;16.52;64.93
64924;HTU21D;51436;44.692;39.214;2023-09-08T02:04:05;16.51;64.89
64924;HTU21D;51436;44.692;39.214;2023-09-08T02:06:31;16.50;64.92
64924;HTU21D;51436;44.692;39.214;2023-09-08T02:08:58;16.50;64.90
64924;HTU21D;51436;44.692;39.214;2023-09-08T02:11:25;16.46;64.94
64924;HTU21D;51436;44.692;39.214;2023-09-08T02:13:52;16.48;64.88
64924;HTU21D;51436;44.692;39.214;2023-09-08T02:16:20;16.47;64.87
64924;HTU21D;51436;44.692;39.214;2023-09-08T02:18:50;16.47;64.89
64924;HTU21D;51436;44.692;39.214;2023-09-08T02:21:17;16.45;64.91
64924;HTU21D;51436;44.692;39.214;2023-09-08T02:23:46;16.39;64.98
64924;HTU21D;51436;44.692;39.214;2023-09-08T02:26:13;16.36;65.02
64924;HTU21D;51436;44.692;39.214;2023-09-08T02:28:39;16.36;64.98
64924;HTU21D;51436;44.692;39.214;2023-09-08T02:31:09;16.33;64.92
64924;HTU21D;51436;44.692;39.214;2023-09-08T02:33:39;16.29;64.98
64924;HTU21D;51436;44.692;39.214;2023-09-08T02:36:06;16.27;65.02
64924;HTU21D;51436;44.692;39.214;2023-09-08T02:46:33;16.17;65.09
64924;HTU21D;51436;44.692;39.214;2023-09-08T02:49:00;16.17;65.07
64924;HTU21D;51436;44.692;39.214;2023-09-08T02:51:27;16.19;64.98
64924;HTU21D;51436;44.692;39.214;2023-09-08T02:53:54;16.19;65.02
64924;HTU21D;51436;44.692;39.214;2023-09-08T02:56:20;16.18;65.03
64924;HTU21D;51436;44.692;39.214;2023-09-08T02:58:46;16.15;65.07
64924;HTU21D;51436;44.692;39.214;2023-09-08T03:01:17;16.13;65.12
64924;HTU21D;51436;44.692;39.214;2023-09-08T03:03:49;16.13;65.12
64924;HTU21D;51436;44.692;39.214;2023-09-08T03:06:19;16.16;65.04
64924;HTU21D;51436;44.692;39.214;2023-09-08T03:08:46;16.18;64.98
64924;HTU21D;51436;44.692;39.214;2023-09-08T03:11:13;16.21;64.86
64924;HTU21D;51436;44.692;39.214;2023-09-08T03:13:39;16.27;64.76
64924;HTU21D;51436;44.692;39.214;2023-09-08T03:16:09;16.27;64.79
64924;HTU21D;51436;44.692;39.214;2023-09-08T03:18:37;16.28;64.76
64924;HTU21D;51436;44.692;39.214;2023-09-08T03:21:04;16.35;64.62
64924;HTU21D;51436;44.692;39.214;2023-09-08T03:23:39;16.37;64.49
64924;HTU21D;51436;44.692;39.214;2023-09-08T03:26:06;16.37;64.49
64924;HTU21D;51436;44.692;39.214;2023-09-08T03:28:55;16.42;64.44
64924;HTU21D;51436;44.692;39.214;2023-09-08T03:31:25;16.42;64.46
64924;HTU21D;51436;44.692;39.214;2023-09-08T03:33:52;16.47;64.37
64924;HTU21D;51436;44.692;39.214;2023-09-08T03:36:22;16.51;64.25
64924;HTU21D;51436;44.692;39.214;2023-09-08T03:38:51;16.59;64.11
64924;HTU21D;51436;44.692;39.214;2023-09-08T03:41:18;16.65;64.01
64924;HTU21D;51436;44.692;39.214;2023-09-08T03:43:45;16.69;63.95
64924;HTU21D;51436;44.692;39.214;2023-09-08T03:46:12;16.73;63.92
64924;HTU21D;51436;44.692;39.214;2023-09-08T03:48:38;16.78;63.83
64924;HTU21D;51436;44.692;39.214;2023-09-08T03:51:05;16.76;63.91
64924;HTU21D;51436;44.692;39.214;2023-09-08T03:53:32;16.80;63.90
64924;HTU21D;51436;44.692;39.214;2023-09-08T03:55:58;16.84;63.85
64924;HTU21D;51436;44.692;39.214;2023-09-08T03:58:25;16.88;63.80
64924;HTU21D;51436;44.692;39.214;2023-09-08T04:00:51;16.91;63.76
64924;HTU21D;51436;44.692;39.214;2023-09-08T04:03:21;17.02;63.59
64924;HTU21D;51436;44.692;39.214;2023-09-08T04:05:47;17.13;63.43
64924;HTU21D;51436;44.692;39.214;2023-09-08T04:08:13;17.32;63.08
64924;HTU21D;51436;44.692;39.214;2023-09-08T04:10:40;17.53;62.70
64924;HTU21D;51436;44.692;39.214;2023-09-08T04:13:06;17.77;62.23
64924;HTU21D;51436;44.692;39.214;2023-09-08T04:15:33;17.94;61.91
64924;HTU21D;51436;44.692;39.214;2023-09-08T04:17:59;18.10;61.70
64924;HTU21D;51436;44.692;39.214;2023-09-08T04:20:26;18.24;61.38
64924;HTU21D;51436;44.692;39.214;2023-09-08T04:22:53;18.25;61.38
64924;HTU21D;51436;44.692;39.214;2023-09-08T04:25:23;18.29;61.29
64924;HTU21D;51436;44.692;39.214;2023-09-08T04:27:51;18.40;61.10
64924;HTU21D;51436;44.692;39.214;2023-09-08T04:30:17;18.54;60.79
64924;HTU21D;51436;44.692;39.214;2023-09-08T04:32:44;18.64;60.57
64924;HTU21D;51436;44.692;39.214;2023-09-08T04:35:11;18.76;60.34
64924;HTU21D;51436;44.692;39.214;2023-09-08T04:37:38;18.85;60.18
64924;HTU21D;51436;44.692;39.214;2023-09-08T04:40:06;18.97;59.95
64924;HTU21D;51436;44.692;39.214;2023-09-08T04:42:33;19.10;59.70
64924;HTU21D;51436;44.692;39.214;2023-09-08T04:45:01;19.11;59.64
64924;HTU21D;51436;44.692;39.214;2023-09-08T04:47:28;19.03;59.84
64924;HTU21D;51436;44.692;39.214;2023-09-08T04:49:55;18.93;60.07
64924;HTU21D;51436;44.692;39.214;2023-09-08T04:52:22;18.87;60.17
64924;HTU21D;51436;44.692;39.214;2023-09-08T04:54:48;18.88;60.18
64924;HTU21D;51436;44.692;39.214;2023-09-08T04:57:15;18.88;60.09
64924;HTU21D;51436;44.692;39.214;2023-09-08T04:59:43;18.87;60.09
64924;HTU21D;51436;44.692;39.214;2023-09-08T05:02:09;18.87;60.03
64924;HTU21D;51436;44.692;39.214;2023-09-08T05:04:36;18.92;59.89
64924;HTU21D;51436;44.692;39.214;2023-09-08T05:07:03;18.93;59.82
64924;HTU21D;51436;44.692;39.214;2023-09-08T05:09:30;18.97;59.73
64924;HTU21D;51436;44.692;39.214;2023-09-08T05:11:56;19.00;59.67
64924;HTU21D;51436;44.692;39.214;2023-09-08T05:14:25;19.07;59.54
64924;HTU21D;51436;44.692;39.214;2023-09-08T05:16:52;19.11;59.43
64924;HTU21D;51436;44.692;39.214;2023-09-08T05:19:27;19.12;59.43
64924;HTU21D;51436;44.692;39.214;2023-09-08T05:21:56;19.08;59.52
64924;HTU21D;51436;44.692;39.214;2023-09-08T05:24:23;19.02;59.59
64924;HTU21D;51436;44.692;39.214;2023-09-08T05:26:51;19.02;59.59
64924;HTU21D;51436;44.692;39.214;2023-09-08T05:29:19;19.09;59.41
64924;HTU21D;51436;44.692;39.214;2023-09-08T05:31:46;19.13;59.25
64924;HTU21D;51436;44.692;39.214;2023-09-08T05:34:12;19.15;59.19
64924;HTU21D;51436;44.692;39.214;2023-09-08T05:36:39;19.28;58.93
64924;HTU21D;51436;44.692;39.214;2023-09-08T05:39:07;19.30;58.83
64924;HTU21D;51436;44.692;39.214;2023-09-08T05:41:34;19.27;58.83
64924;HTU21D;51436;44.692;39.214;2023-09-08T05:44:02;19.25;58.87
64924;HTU21D;51436;44.692;39.214;2023-09-08T05:46:28;19.25;58.82
64924;HTU21D;51436;44.692;39.214;2023-09-08T05:48:55;19.36;58.59
64924;HTU21D;51436;44.692;39.214;2023-09-08T05:51:22;19.51;58.30
64924;HTU21D;51436;44.692;39.214;2023-09-08T05:54:11;19.57;58.13
64924;HTU21D;51436;44.692;39.214;2023-09-08T05:56:38;19.65;57.96
64924;HTU21D;51436;44.692;39.214;2023-09-08T05:59:05;19.68;57.91
64924;HTU21D;51436;44.692;39.214;2023-09-08T06:01:32;19.76;57.78
64924;HTU21D;51436;44.692;39.214;2023-09-08T06:04:00;19.81;57.67
64924;HTU21D;51436;44.692;39.214;2023-09-08T06:06:29;19.86;57.56
64924;HTU21D;51436;44.692;39.214;2023-09-08T06:08:55;19.86;57.55
64924;HTU21D;51436;44.692;39.214;2023-09-08T06:11:22;19.95;57.37
64924;HTU21D;51436;44.692;39.214;2023-09-08T06:13:51;19.98;57.31
64924;HTU21D;51436;44.692;39.214;2023-09-08T06:16:25;20.04;57.17
64924;HTU21D;51436;44.692;39.214;2023-09-08T06:26:50;20.29;56.79
64924;HTU21D;51436;44.692;39.214;2023-09-08T06:29:16;20.31;56.61
64924;HTU21D;51436;44.692;39.214;2023-09-08T06:31:42;20.41;56.44
64924;HTU21D;51436;44.692;39.214;2023-09-08T06:34:09;20.49;56.26
64924;HTU21D;51436;44.692;39.214;2023-09-08T06:36:36;20.55;56.16
64924;HTU21D;51436;44.692;39.214;2023-09-08T06:39:02;20.57;56.10
64924;HTU21D;51436;44.692;39.214;2023-09-08T06:41:30;20.60;56.07
64924;HTU21D;51436;44.692;39.214;2023-09-08T06:43:59;20.61;56.01
64924;HTU21D;51436;44.692;39.214;2023-09-08T06:46:27;20.75;55.78
64924;HTU21D;51436;44.692;39.214;2023-09-08T06:48:54;20.80;55.62
64924;HTU21D;51436;44.692;39.214;2023-09-08T06:51:20;20.87;55.49
64924;HTU21D;51436;44.692;39.214;2023-09-08T06:53:57;20.95;55.42
64924;HTU21D;51436;44.692;39.214;2023-09-08T06:56:31;20.98;55.36
64924;HTU21D;51436;44.692;39.214;2023-09-08T06:58:58;20.95;55.36
64924;HTU21D;51436;44.692;39.214;2023-09-08T07:01:25;21.06;55.17
64924;HTU21D;51436;44.692;39.214;2023-09-08T07:03:51;21.16;54.98
64924;HTU21D;51436;44.692;39.214;2023-09-08T07:06:18;21.23;54.84
64924;HTU21D;51436;44.692;39.214;2023-09-08T07:08:44;21.24;54.77
64924;HTU21D;51436;44.692;39.214;2023-09-08T07:11:10;21.29;54.69
64924;HTU21D;51436;44.692;39.214;2023-09-08T07:13:37;21.37;54.46
64924;HTU21D;51436;44.692;39.214;2023-09-08T07:16:03;21.37;54.43
64924;HTU21D;51436;44.692;39.214;2023-09-08T07:18:31;21.34;54.46
64924;HTU21D;51436;44.692;39.214;2023-09-08T07:21:02;21.31;54.53
64924;HTU21D;51436;44.692;39.214;2023-09-08T07:23:29;21.37;54.42
64924;HTU21D;51436;44.692;39.214;2023-09-08T07:25:56;21.51;54.20
64924;HTU21D;51436;44.692;39.214;2023-09-08T07:28:26;21.64;53.94
64924;HTU21D;51436;44.692;39.214;2023-09-08T07:31:01;21.70;53.87
64924;HTU21D;51436;44.692;39.214;2023-09-08T07:33:28;21.77;53.72
64924;HTU21D;51436;44.692;39.214;2023-09-08T07:35:55;21.82;53.62
64924;HTU21D;51436;44.692;39.214;2023-09-08T07:38:22;21.88;53.56
64924;HTU21D;51436;44.692;39.214;2023-09-08T07:40:48;21.93;53.45
64924;HTU21D;51436;44.692;39.214;2023-09-08T07:43:15;21.98;53.36
64924;HTU21D;51436;44.692;39.214;2023-09-08T07:45:42;21.97;53.36
64924;HTU21D;51436;44.692;39.214;2023-09-08T07:48:09;22.02;53.24
64924;HTU21D;51436;44.692;39.214;2023-09-08T07:50:36;22.09;53.07
64924;HTU21D;51436;44.692;39.214;2023-09-08T07:53:02;22.12;52.99
64924;HTU21D;51436;44.692;39.214;2023-09-08T07:55:28;22.22;52.86
64924;HTU21D;51436;44.692;39.214;2023-09-08T07:57:58;22.24;52.78
64924;HTU21D;51436;44.692;39.214;2023-09-08T08:00:24;22.28;52.69
64924;HTU21D;51436;44.692;39.214;2023-09-08T08:02:54;22.41;52.47
64924;HTU21D;51436;44.692;39.214;2023-09-08T08:05:22;22.53;52.30
64924;HTU21D;51436;44.692;39.214;2023-09-08T08:07:50;22.66;52.13
64924;HTU21D;51436;44.692;39.214;2023-09-08T08:10:17;22.63;52.08
64924;HTU21D;51436;44.692;39.214;2023-09-08T08:12:44;22.65;52.10
64924;HTU21D;51436;44.692;39.214;2023-09-08T08:15:11;22.71;51.97
64924;HTU21D;51436;44.692;39.214;2023-09-08T08:17:38;22.75;51.86
64924;HTU21D;51436;44.692;39.214;2023-09-08T08:20:09;22.77;51.84
64924;HTU21D;51436;44.692;39.214;2023-09-08T08:22:37;22.87;51.66
64924;HTU21D;51436;44.692;39.214;2023-09-08T08:25:04;22.95;51.48
64924;HTU21D;51436;44.692;39.214;2023-09-08T08:27:31;23.03;51.38
64924;HTU21D;51436;44.692;39.214;2023-09-08T08:29:58;23.10;51.23
64924;HTU21D;51436;44.692;39.214;2023-09-08T08:32:27;23.12;51.21
64924;HTU21D;51436;44.692;39.214;2023-09-08T08:34:53;23.18;51.08
64924;HTU21D;51436;44.692;39.214;2023-09-08T08:37:20;23.23;51.01
64924;HTU21D;51436;44.692;39.214;2023-09-08T08:39:46;23.29;50.82
64924;HTU21D;51436;44.692;39.214;2023-09-08T08:42:13;23.30;50.76
64924;HTU21D;51436;44.692;39.214;2023-09-08T08:44:40;23.32;50.70
64924;HTU21D;51436;44.692;39.214;2023-09-08T08:47:08;23.36;50.66
64924;HTU21D;51436;44.692;39.214;2023-09-08T08:49:36;23.40;50.58
64924;HTU21D;51436;44.692;39.214;2023-09-08T08:52:03;23.42;50.51
64924;HTU21D;51436;44.692;39.214;2023-09-08T08:54:45;23.39;50.55
64924;HTU21D;51436;44.692;39.214;2023-09-08T08:57:17;23.46;50.43
64924;HTU21D;51436;44.692;39.214;2023-09-08T08:59:44;23.45;50.36
64924;HTU21D;51436;44.692;39.214;2023-09-08T09:02:11;23.44;50.28
64924;HTU21D;51436;44.692;39.214;2023-09-08T09:04:38;23.45;50.27
64924;HTU21D;51436;44.692;39.214;2023-09-08T09:07:06;23.50;50.16
64924;HTU21D;51436;44.692;39.214;2023-09-08T09:09:33;23.53;50.07
64924;HTU21D;51436;44.692;39.214;2023-09-08T09:12:00;23.52;50.05
64924;HTU21D;51436;44.692;39.214;2023-09-08T09:14:32;23.55;49.98
64924;HTU21D;51436;44.692;39.214;2023-09-08T09:16:59;23.56;49.95
64924;HTU21D;51436;44.692;39.214;2023-09-08T09:19:49;23.61;49.85
64924;HTU21D;51436;44.692;39.214;2023-09-08T09:22:20;23.65;49.73
64924;HTU21D;51436;44.692;39.214;2023-09-08T09:24:48;23.62;49.72
64924;HTU21D;51436;44.692;39.214;2023-09-08T09:27:14;23.61;49.69
64924;HTU21D;51436;44.692;39.214;2023-09-08T09:29:48;23.65;49.64
64924;HTU21D;51436;44.692;39.214;2023-09-08T09:32:16;23.66;49.56
64924;HTU21D;51436;44.692;39.214;2023-09-08T09:34:50;23.68;49.53
64924;HTU21D;51436;44.692;39.214;2023-09-08T09:37:19;23.74;49.39
64924;HTU21D;51436;44.692;39.214;2023-09-08T09:39:53;23.84;49.20
64924;HTU21D;51436;44.692;39.214;2023-09-08T09:42:21;23.91;49.05
64924;HTU21D;51436;44.692;39.214;2023-09-08T09:44:48;23.98;48.92
64924;HTU21D;51436;44.692;39.214;2023-09-08T09:47:19;24.00;48.86
64924;HTU21D;51436;44.692;39.214;2023-09-08T09:49:46;24.02;48.83
64924;HTU21D;51436;44.692;39.214;2023-09-08T09:52:23;24.09;48.71
64924;HTU21D;51436;44.692;39.214;2023-09-08T09:54:55;24.14;48.65
64924;HTU21D;51436;44.692;39.214;2023-09-08T10:08:34;24.21;48.50
64924;HTU21D;51436;44.692;39.214;2023-09-08T10:11:06;24.21;48.51
64924;HTU21D;51436;44.692;39.214;2023-09-08T10:13:39;24.23;48.42
64924;HTU21D;51436;44.692;39.214;2023-09-08T10:16:13;24.20;48.39
64924;HTU21D;51436;44.692;39.214;2023-09-08T10:18:45;24.19;48.38
64924;HTU21D;51436;44.692;39.214;2023-09-08T10:21:13;24.27;48.18
64924;HTU21D;51436;44.692;39.214;2023-09-08T10:26:40;24.27;48.08
64924;HTU21D;51436;44.692;39.214;2023-09-08T10:29:10;24.23;48.07
64924;HTU21D;51436;44.692;39.214;2023-09-08T10:31:37;24.26;48.00
64924;HTU21D;51436;44.692;39.214;2023-09-08T10:34:04;24.31;47.85
64924;HTU21D;51436;44.692;39.214;2023-09-08T10:36:30;24.34;47.70
64924;HTU21D;51436;44.692;39.214;2023-09-08T10:39:30;24.35;47.74
64924;HTU21D;51436;44.692;39.214;2023-09-08T10:44:44;24.45;47.47
64924;HTU21D;51436;44.692;39.214;2023-09-08T10:47:10;24.45;47.41
64924;HTU21D;51436;44.692;39.214;2023-09-08T10:49:40;24.47;47.38
64924;HTU21D;51436;44.692;39.214;2023-09-08T10:52:10;24.50;47.28
64924;HTU21D;51436;44.692;39.214;2023-09-08T10:54:51;24.56;47.10
64924;HTU21D;51436;44.692;39.214;2023-09-08T10:57:25;24.49;47.12
64924;HTU21D;51436;44.692;39.214;2023-09-08T10:59:55;24.46;47.35
64924;HTU21D;51436;44.692;39.214;2023-09-08T11:03:00;24.50;47.22
64924;HTU21D;51436;44.692;39.214;2023-09-08T11:05:30;24.57;47.03
64924;HTU21D;51436;44.692;39.214;2023-09-08T11:07:59;24.60;46.91
64924;HTU21D;51436;44.692;39.214;2023-09-08T11:10:25;24.57;46.86
64924;HTU21D;51436;44.692;39.214;2023-09-08T11:12:54;24.59;46.81
64924;HTU21D;51436;44.692;39.214;2023-09-08T11:15:20;24.61;46.73
64924;HTU21D;51436;44.692;39.214;2023-09-08T11:17:49;24.62;46.67
64924;HTU21D;51436;44.692;39.214;2023-09-08T11:20:26;24.61;46.58
64924;HTU21D;51436;44.692;39.214;2023-09-08T11:22:53;24.61;46.50
64924;HTU21D;51436;44.692;39.214;2023-09-08T11:25:20;24.62;46.39
64924;HTU21D;51436;44.692;39.214;2023-09-08T11:27:47;24.64;46.32
64924;HTU21D;51436;44.692;39.214;2023-09-08T11:30:16;24.68;46.13
64924;HTU21D;51436;44.692;39.214;2023-09-08T11:32:43;24.69;46.07
64924;HTU21D;51436;44.692;39.214;2023-09-08T11:35:10;24.63;46.09
64924;HTU21D;51436;44.692;39.214;2023-09-08T11:37:39;24.62;46.05
64924;HTU21D;51436;44.692;39.214;2023-09-08T11:40:08;24.65;45.96
64924;HTU21D;51436;44.692;39.214;2023-09-08T11:42:43;24.70;45.87
64924;HTU21D;51436;44.692;39.214;2023-09-08T11:45:16;24.74;45.78
64924;HTU21D;51436;44.692;39.214;2023-09-08T11:47:47;24.76;45.66
64924;HTU21D;51436;44.692;39.214;2023-09-08T11:50:15;24.78;45.63
64924;HTU21D;51436;44.692;39.214;2023-09-08T11:52:48;24.83;45.52
64924;HTU21D;51436;44.692;39.214;2023-09-08T11:55:15;24.86;45.41
64924;HTU21D;51436;44.692;39.214;2023-09-08T11:57:46;24.83;45.48
64924;HTU21D;51436;44.692;39.214;2023-09-08T12:00:14;24.79;45.45
64924;HTU21D;51436;44.692;39.214;2023-09-08T12:02:44;24.82;45.39
64924;HTU21D;51436;44.692;39.214;2023-09-08T12:05:24;24.87;45.25
64924;HTU21D;51436;44.692;39.214;2023-09-08T12:07:52;24.84;45.27
64924;HTU21D;51436;44.692;39.214;2023-09-08T12:10:19;24.83;45.24
64924;HTU21D;51436;44.692;39.214;2023-09-08T12:12:50;24.86;45.12
64924;HTU21D;51436;44.692;39.214;2023-09-08T12:15:32;24.85;45.06
64924;HTU21D;51436;44.692;39.214;2023-09-08T12:18:11;24.83;45.10
64924;HTU21D;51436;44.692;39.214;2023-09-08T12:20:39;24.83;45.02
64924;HTU21D;51436;44.692;39.214;2023-09-08T12:23:19;24.83;44.98
64924;HTU21D;51436;44.692;39.214;2023-09-08T12:25:50;24.80;44.89
64924;HTU21D;51436;44.692;39.214;2023-09-08T12:28:21;24.77;44.86
64924;HTU21D;51436;44.692;39.214;2023-09-08T12:30:51;24.76;44.84
64924;HTU21D;51436;44.692;39.214;2023-09-08T12:33:19;24.75;44.81
64924;HTU21D;51436;44.692;39.214;2023-09-08T12:35:46;24.76;44.68
64924;HTU21D;51436;44.692;39.214;2023-09-08T12:38:18;24.80;44.59
64924;HTU21D;51436;44.692;39.214;2023-09-08T12:40:44;24.84;44.46
64924;HTU21D;51436;44.692;39.214;2023-09-08T12:43:11;24.85;44.45
64924;HTU21D;51436;44.692;39.214;2023-09-08T12:45:37;24.83;44.38
64924;HTU21D;51436;44.692;39.214;2023-09-08T12:48:04;24.84;44.25
64924;HTU21D;51436;44.692;39.214;2023-09-08T12:50:32;24.79;44.23
64924;HTU21D;51436;44.692;39.214;2023-09-08T12:52:59;24.77;44.20
64924;HTU21D;51436;44.692;39.214;2023-09-08T12:55:25;24.73;44.17
64924;HTU21D;51436;44.692;39.214;2023-09-08T12:57:52;24.78;44.05
64924;HTU21D;51436;44.692;39.214;2023-09-08T13:00:22;24.78;43.99
64924;HTU21D;51436;44.692;39.214;2023-09-08T13:02:49;24.83;43.87
64924;HTU21D;51436;44.692;39.214;2023-09-08T13:05:15;24.83;43.81
64924;HTU21D;51436;44.692;39.214;2023-09-08T13:07:42;24.79;43.83
64924;HTU21D;51436;44.692;39.214;2023-09-08T13:10:09;24.75;43.80
64924;HTU21D;51436;44.692;39.214;2023-09-08T13:12:35;24.73;43.81
64924;HTU21D;51436;44.692;39.214;2023-09-08T13:15:02;24.74;43.76
64924;HTU21D;51436;44.692;39.214;2023-09-08T13:17:28;24.72;43.73
64924;HTU21D;51436;44.692;39.214;2023-09-08T13:19:55;24.70;43.67
64924;HTU21D;51436;44.692;39.214;2023-09-08T13:22:22;24.66;43.64
64924;HTU21D;51436;44.692;39.214;2023-09-08T13:24:48;24.66;43.61
64924;HTU21D;51436;44.692;39.214;2023-09-08T13:27:14;24.66;43.54
64924;HTU21D;51436;44.692;39.214;2023-09-08T13:29:43;24.64;43.42
64924;HTU21D;51436;44.692;39.214;2023-09-08T13:32:10;24.62;43.43
64924;HTU21D;51436;44.692;39.214;2023-09-08T13:34:36;24.59;43.44
64924;HTU21D;51436;44.692;39.214;2023-09-08T13:37:04;24.56;43.41
64924;HTU21D;51436;44.692;39.214;2023-09-08T13:47:14;24.39;43.66
64924;HTU21D;51436;44.692;39.214;2023-09-08T13:49:40;24.38;43.57
64924;HTU21D;51436;44.692;39.214;2023-09-08T13:52:07;24.36;43.47
64924;HTU21D;51436;44.692;39.214;2023-09-08T13:54:33;24.35;43.42
64924;HTU21D;51436;44.692;39.214;2023-09-08T13:57:01;24.32;43.39
64924;HTU21D;51436;44.692;39.214;2023-09-08T13:59:29;24.29;43.36
64924;HTU21D;51436;44.692;39.214;2023-09-08T14:01:56;24.28;43.35
64924;HTU21D;51436;44.692;39.214;2023-09-08T14:04:27;24.26;43.34
64924;HTU21D;51436;44.692;39.214;2023-09-08T14:06:53;24.21;43.30
64924;HTU21D;51436;44.692;39.214;2023-09-08T14:09:20;24.16;43.31
64924;HTU21D;51436;44.692;39.214;2023-09-08T14:11:46;24.11;43.33
64924;HTU21D;51436;44.692;39.214;2023-09-08T14:14:12;24.05;43.37
64924;HTU21D;51436;44.692;39.214;2023-09-08T14:16:39;24.00;43.39
64924;HTU21D;51436;44.692;39.214;2023-09-08T14:19:05;23.97;43.42
64924;HTU21D;51436;44.692;39.214;2023-09-08T14:21:32;23.92;43.44
64924;HTU21D;51436;44.692;39.214;2023-09-08T14:23:58;23.88;43.46
64924;HTU21D;51436;44.692;39.214;2023-09-08T14:26:25;23.85;43.49
64924;HTU21D;51436;44.692;39.214;2023-09-08T14:28:51;23.77;43.53
64924;HTU21D;51436;44.692;39.214;2023-09-08T14:31:19;23.71;43.59
64924;HTU21D;51436;44.692;39.214;2023-09-08T14:33:45;23.67;43.61
64924;HTU21D;51436;44.692;39.214;2023-09-08T14:36:17;23.62;43.65
64924;HTU21D;51436;44.692;39.214;2023-09-08T14:38:45;23.57;43.71
64924;HTU21D;51436;44.692;39.214;2023-09-08T14:41:11;23.51;43.72
64924;HTU21D;51436;44.692;39.214;2023-09-08T14:43:37;23.44;43.77
64924;HTU21D;51436;44.692;39.214;2023-09-08T14:46:04;23.38;43.80
64924;HTU21D;51436;44.692;39.214;2023-09-08T14:48:30;23.30;43.79
64924;HTU21D;51436;44.692;39.214;2023-09-08T14:50:57;23.24;43.81
64924;HTU21D;51436;44.692;39.214;2023-09-08T14:53:24;23.17;43.85
64924;HTU21D;51436;44.692;39.214;2023-09-08T14:55:50;23.13;43.85
64924;HTU21D;51436;44.692;39.214;2023-09-08T14:58:17;23.09;43.86
64924;HTU21D;51436;44.692;39.214;2023-09-08T15:00:44;23.02;43.91
64924;HTU21D;51436;44.692;39.214;2023-09-08T15:03:12;22.96;43.96
64924;HTU21D;51436;44.692;39.214;2023-09-08T15:05:38;22.88;43.96
64924;HTU21D;51436;44.692;39.214;2023-09-08T15:08:05;22.83;44.00
64924;HTU21D;51436;44.692;39.214;2023-09-08T15:10:31;22.77;44.04
64924;HTU21D;51436;44.692;39.214;2023-09-08T15:12:58;22.70;44.08
64924;HTU21D;51436;44.692;39.214;2023-09-08T15:15:24;22.66;44.10
64924;HTU21D;51436;44.692;39.214;2023-09-08T15:17:54;22.61;44.14
64924;HTU21D;51436;44.692;39.214;2023-09-08T15:20:21;22.55;44.16
64924;HTU21D;51436;44.692;39.214;2023-09-08T15:22:48;22.50;44.19
64924;HTU21D;51436;44.692;39.214;2023-09-08T15:25:15;22.43;44.26
64924;HTU21D;51436;44.692;39.214;2023-09-08T15:27:42;22.36;44.34
64924;HTU21D;51436;44.692;39.214;2023-09-08T15:30:13;22.27;44.42
64924;HTU21D;51436;44.692;39.214;2023-09-08T15:32:40;22.19;44.49
64924;HTU21D;51436;44.692;39.214;2023-09-08T15:35:07;22.13;44.55
64924;HTU21D;51436;44.692;39.214;2023-09-08T15:37:34;22.07;44.59
64924;HTU21D;51436;44.692;39.214;2023-09-08T15:40:01;22.01;44.67
64924;HTU21D;51436;44.692;39.214;2023-09-08T15:42:30;21.93;44.77
64924;HTU21D;51436;44.692;39.214;2023-09-08T15:44:56;21.85;44.85
64924;HTU21D;51436;44.692;39.214;2023-09-08T15:47:23;21.79;44.90
64924;HTU21D;51436;44.692;39.214;2023-09-08T15:49:49;21.74;44.96
64924;HTU21D;51436;44.692;39.214;2023-09-08T15:52:17;21.67;45.03
64924;HTU21D;51436;44.692;39.214;2023-09-08T15:54:43;21.60;45.13